sensor_id;sensor_type;location;lat;lon;timestamp;P1;durP1;ratioP1;P2;durP2;ratioP2
12367;SDS011;6248;49.812;6.620;2023-02-24T00:01:50;20.20;;;13.23;;
12367;SDS011;6248;49.812;6.620;2023-02-24T00:04:24;19.40;;;12.77;;
12367;SDS011;6248;49.812;6.620;2023-02-24T00:06:51;18.70;;;12.80;;
12367;SDS011;6248;49.812;6.620;2023-02-24T00:09:19;17.63;;;12.33;;
12367;SDS011;6248;49.812;6.620;2023-02-24T00:11:47;18.73;;;13.33;;
12367;SDS011;6248;49.812;6.620;2023-02-24T00:14:15;16.90;;;12.37;;
12367;SDS011;6248;49.812;6.620;2023-02-24T00:16:43;19.33;;;13.23;;
12367;SDS011;6248;49.812;6.620;2023-02-24T00:19:12;18.37;;;13.17;;
12367;SDS011;6248;49.812;6.620;2023-02-24T00:21:40;15.73;;;11.47;;
12367;SDS011;6248;49.812;6.620;2023-02-24T00:24:08;18.20;;;12.70;;
12367;SDS011;6248;49.812;6.620;2023-02-24T00:26:35;17.17;;;12.30;;
12367;SDS011;6248;49.812;6.620;2023-02-24T00:29:03;18.60;;;12.30;;
12367;SDS011;6248;49.812;6.620;2023-02-24T00:31:31;19.10;;;12.53;;
12367;SDS011;6248;49.812;6.620;2023-02-24T00:33:58;18.63;;;12.60;;
12367;SDS011;6248;49.812;6.620;2023-02-24T00:36:28;17.93;;;12.50;;
12367;SDS011;6248;49.812;6.620;2023-02-24T00:38:58;19.23;;;13.07;;
12367;SDS011;6248;49.812;6.620;2023-02-24T00:41:26;18.27;;;13.00;;
12367;SDS011;6248;49.812;6.620;2023-02-24T00:43:54;19.87;;;13.80;;
12367;SDS011;6248;49.812;6.620;2023-02-24T00:46:22;18.70;;;13.50;;
12367;SDS011;6248;49.812;6.620;2023-02-24T00:48:50;18.57;;;12.90;;
12367;SDS011;6248;49.812;6.620;2023-02-24T00:51:20;18.67;;;12.80;;
12367;SDS011;6248;49.812;6.620;2023-02-24T00:53:49;19.83;;;13.07;;
12367;SDS011;6248;49.812;6.620;2023-02-24T00:56:20;19.20;;;13.47;;
12367;SDS011;6248;49.812;6.620;2023-02-24T00:58:47;17.80;;;12.20;;
12367;SDS011;6248;49.812;6.620;2023-02-24T01:01:14;20.20;;;13.50;;
12367;SDS011;6248;49.812;6.620;2023-02-24T01:03:42;20.97;;;13.90;;
12367;SDS011;6248;49.812;6.620;2023-02-24T01:06:09;18.10;;;13.03;;
12367;SDS011;6248;49.812;6.620;2023-02-24T01:08:37;21.20;;;14.43;;
12367;SDS011;6248;49.812;6.620;2023-02-24T01:11:05;19.80;;;14.07;;
12367;SDS011;6248;49.812;6.620;2023-02-24T01:13:50;20.20;;;14.00;;
12367;SDS011;6248;49.812;6.620;2023-02-24T01:16:17;20.63;;;13.30;;
12367;SDS011;6248;49.812;6.620;2023-02-24T01:18:45;19.27;;;14.20;;
12367;SDS011;6248;49.812;6.620;2023-02-24T01:21:12;19.10;;;13.93;;
12367;SDS011;6248;49.812;6.620;2023-02-24T01:23:40;20.03;;;14.00;;
12367;SDS011;6248;49.812;6.620;2023-02-24T01:26:08;19.67;;;14.30;;
12367;SDS011;6248;49.812;6.620;2023-02-24T01:28:36;20.67;;;14.00;;
12367;SDS011;6248;49.812;6.620;2023-02-24T01:31:03;22.33;;;15.50;;
12367;SDS011;6248;49.812;6.620;2023-02-24T01:33:31;20.13;;;14.73;;
12367;SDS011;6248;49.812;6.620;2023-02-24T01:36:07;23.83;;;16.07;;
12367;SDS011;6248;49.812;6.620;2023-02-24T01:38:34;21.97;;;15.20;;
12367;SDS011;6248;49.812;6.620;2023-02-24T01:41:03;22.20;;;15.47;;
12367;SDS011;6248;49.812;6.620;2023-02-24T01:43:31;24.13;;;16.57;;
12367;SDS011;6248;49.812;6.620;2023-02-24T01:45:59;22.97;;;15.60;;
12367;SDS011;6248;49.812;6.620;2023-02-24T01:48:26;22.27;;;15.40;;
12367;SDS011;6248;49.812;6.620;2023-02-24T01:50:55;21.10;;;15.07;;
12367;SDS011;6248;49.812;6.620;2023-02-24T01:53:22;21.30;;;15.03;;
12367;SDS011;6248;49.812;6.620;2023-02-24T01:55:49;20.57;;;14.00;;
12367;SDS011;6248;49.812;6.620;2023-02-24T01:58:19;19.87;;;14.83;;
12367;SDS011;6248;49.812;6.620;2023-02-24T02:00:49;21.57;;;15.10;;
12367;SDS011;6248;49.812;6.620;2023-02-24T02:03:18;21.63;;;16.70;;
12367;SDS011;6248;49.812;6.620;2023-02-24T02:05:48;22.13;;;15.90;;
12367;SDS011;6248;49.812;6.620;2023-02-24T02:08:15;23.00;;;15.77;;
12367;SDS011;6248;49.812;6.620;2023-02-24T02:10:43;22.87;;;16.33;;
12367;SDS011;6248;49.812;6.620;2023-02-24T02:13:11;21.37;;;14.87;;
12367;SDS011;6248;49.812;6.620;2023-02-24T02:15:43;23.63;;;16.30;;
12367;SDS011;6248;49.812;6.620;2023-02-24T02:18:14;23.73;;;15.90;;
12367;SDS011;6248;49.812;6.620;2023-02-24T02:20:54;22.20;;;16.33;;
12367;SDS011;6248;49.812;6.620;2023-02-24T02:23:28;22.30;;;15.07;;
12367;SDS011;6248;49.812;6.620;2023-02-24T02:26:04;23.23;;;16.13;;
12367;SDS011;6248;49.812;6.620;2023-02-24T02:31:21;22.80;;;16.03;;
12367;SDS011;6248;49.812;6.620;2023-02-24T02:36:38;21.43;;;15.47;;
12367;SDS011;6248;49.812;6.620;2023-02-24T02:39:09;19.90;;;14.60;;
12367;SDS011;6248;49.812;6.620;2023-02-24T02:41:43;23.23;;;15.63;;
12367;SDS011;6248;49.812;6.620;2023-02-24T02:44:13;21.23;;;15.47;;
12367;SDS011;6248;49.812;6.620;2023-02-24T02:46:43;22.97;;;15.97;;
12367;SDS011;6248;49.812;6.620;2023-02-24T02:49:12;20.60;;;14.70;;
12367;SDS011;6248;49.812;6.620;2023-02-24T02:51:43;19.80;;;14.63;;
12367;SDS011;6248;49.812;6.620;2023-02-24T02:54:16;18.97;;;13.87;;
12367;SDS011;6248;49.812;6.620;2023-02-24T02:56:46;21.53;;;15.40;;
12367;SDS011;6248;49.812;6.620;2023-02-24T02:59:17;21.10;;;15.60;;
12367;SDS011;6248;49.812;6.620;2023-02-24T03:01:47;21.80;;;15.53;;
12367;SDS011;6248;49.812;6.620;2023-02-24T03:04:14;22.37;;;15.53;;
12367;SDS011;6248;49.812;6.620;2023-02-24T03:06:48;21.03;;;16.23;;
12367;SDS011;6248;49.812;6.620;2023-02-24T03:09:18;20.50;;;15.00;;
12367;SDS011;6248;49.812;6.620;2023-02-24T03:11:46;21.90;;;16.00;;
12367;SDS011;6248;49.812;6.620;2023-02-24T03:14:18;19.73;;;14.93;;
12367;SDS011;6248;49.812;6.620;2023-02-24T03:16:46;21.07;;;14.73;;
12367;SDS011;6248;49.812;6.620;2023-02-24T03:19:15;23.37;;;15.83;;
12367;SDS011;6248;49.812;6.620;2023-02-24T03:21:44;21.60;;;15.07;;
12367;SDS011;6248;49.812;6.620;2023-02-24T03:24:17;21.47;;;15.23;;
12367;SDS011;6248;49.812;6.620;2023-02-24T03:26:46;22.33;;;15.97;;
12367;SDS011;6248;49.812;6.620;2023-02-24T03:29:14;22.83;;;15.40;;
12367;SDS011;6248;49.812;6.620;2023-02-24T03:31:48;20.67;;;14.60;;
12367;SDS011;6248;49.812;6.620;2023-02-24T03:34:19;19.57;;;14.23;;
12367;SDS011;6248;49.812;6.620;2023-02-24T03:36:47;19.90;;;14.27;;
12367;SDS011;6248;49.812;6.620;2023-02-24T03:39:15;20.43;;;14.17;;
12367;SDS011;6248;49.812;6.620;2023-02-24T03:41:45;19.80;;;14.37;;
12367;SDS011;6248;49.812;6.620;2023-02-24T03:44:13;21.57;;;14.63;;
12367;SDS011;6248;49.812;6.620;2023-02-24T03:46:40;19.77;;;14.40;;
12367;SDS011;6248;49.812;6.620;2023-02-24T03:49:08;22.37;;;14.80;;
12367;SDS011;6248;49.812;6.620;2023-02-24T03:51:41;21.80;;;14.83;;
12367;SDS011;6248;49.812;6.620;2023-02-24T03:54:12;20.77;;;14.67;;
12367;SDS011;6248;49.812;6.620;2023-02-24T03:56:46;22.40;;;14.97;;
12367;SDS011;6248;49.812;6.620;2023-02-24T03:59:22;25.33;;;14.63;;
12367;SDS011;6248;49.812;6.620;2023-02-24T04:01:53;23.17;;;15.67;;
12367;SDS011;6248;49.812;6.620;2023-02-24T04:04:24;21.00;;;15.87;;
12367;SDS011;6248;49.812;6.620;2023-02-24T04:06:53;21.60;;;15.23;;
12367;SDS011;6248;49.812;6.620;2023-02-24T04:09:23;21.33;;;14.73;;
12367;SDS011;6248;49.812;6.620;2023-02-24T04:11:55;20.57;;;14.27;;
12367;SDS011;6248;49.812;6.620;2023-02-24T04:14:26;21.07;;;14.87;;
12367;SDS011;6248;49.812;6.620;2023-02-24T04:16:56;21.13;;;14.87;;
12367;SDS011;6248;49.812;6.620;2023-02-24T04:19:25;20.10;;;14.73;;
12367;SDS011;6248;49.812;6.620;2023-02-24T04:21:53;20.10;;;14.67;;
12367;SDS011;6248;49.812;6.620;2023-02-24T04:24:23;21.33;;;14.83;;
12367;SDS011;6248;49.812;6.620;2023-02-24T04:26:53;21.67;;;14.60;;
12367;SDS011;6248;49.812;6.620;2023-02-24T04:29:24;22.43;;;14.93;;
12367;SDS011;6248;49.812;6.620;2023-02-24T04:31:55;22.53;;;15.00;;
12367;SDS011;6248;49.812;6.620;2023-02-24T04:34:24;21.20;;;14.63;;
12367;SDS011;6248;49.812;6.620;2023-02-24T04:36:56;21.93;;;15.37;;
12367;SDS011;6248;49.812;6.620;2023-02-24T04:39:25;24.10;;;16.33;;
12367;SDS011;6248;49.812;6.620;2023-02-24T04:41:53;22.73;;;15.70;;
12367;SDS011;6248;49.812;6.620;2023-02-24T04:44:22;21.27;;;14.83;;
12367;SDS011;6248;49.812;6.620;2023-02-24T04:46:51;22.20;;;15.17;;
12367;SDS011;6248;49.812;6.620;2023-02-24T04:49:18;19.43;;;14.43;;
12367;SDS011;6248;49.812;6.620;2023-02-24T04:51:46;21.63;;;15.20;;
12367;SDS011;6248;49.812;6.620;2023-02-24T04:54:13;21.17;;;15.37;;
12367;SDS011;6248;49.812;6.620;2023-02-24T04:56:41;21.23;;;15.27;;
12367;SDS011;6248;49.812;6.620;2023-02-24T04:59:09;20.70;;;14.77;;
12367;SDS011;6248;49.812;6.620;2023-02-24T05:01:36;21.13;;;14.50;;
12367;SDS011;6248;49.812;6.620;2023-02-24T05:04:05;21.63;;;14.67;;
12367;SDS011;6248;49.812;6.620;2023-02-24T05:06:33;22.13;;;15.20;;
12367;SDS011;6248;49.812;6.620;2023-02-24T05:09:04;21.33;;;15.33;;
12367;SDS011;6248;49.812;6.620;2023-02-24T05:11:38;22.97;;;14.87;;
12367;SDS011;6248;49.812;6.620;2023-02-24T05:14:06;24.13;;;15.83;;
12367;SDS011;6248;49.812;6.620;2023-02-24T05:16:33;25.13;;;15.87;;
12367;SDS011;6248;49.812;6.620;2023-02-24T05:19:00;21.23;;;15.07;;
12367;SDS011;6248;49.812;6.620;2023-02-24T05:21:49;24.50;;;16.20;;
12367;SDS011;6248;49.812;6.620;2023-02-24T05:24:17;25.00;;;17.13;;
12367;SDS011;6248;49.812;6.620;2023-02-24T05:26:44;25.97;;;17.10;;
12367;SDS011;6248;49.812;6.620;2023-02-24T05:29:11;22.73;;;15.47;;
12367;SDS011;6248;49.812;6.620;2023-02-24T05:31:38;25.20;;;16.57;;
12367;SDS011;6248;49.812;6.620;2023-02-24T05:34:06;24.87;;;17.10;;
12367;SDS011;6248;49.812;6.620;2023-02-24T05:36:34;27.10;;;18.13;;
12367;SDS011;6248;49.812;6.620;2023-02-24T05:39:05;28.57;;;17.30;;
12367;SDS011;6248;49.812;6.620;2023-02-24T05:41:37;25.47;;;17.13;;
12367;SDS011;6248;49.812;6.620;2023-02-24T05:44:06;24.70;;;16.33;;
12367;SDS011;6248;49.812;6.620;2023-02-24T05:46:34;23.43;;;16.03;;
12367;SDS011;6248;49.812;6.620;2023-02-24T05:49:02;22.17;;;15.43;;
12367;SDS011;6248;49.812;6.620;2023-02-24T05:51:32;23.03;;;15.90;;
12367;SDS011;6248;49.812;6.620;2023-02-24T05:54:00;23.67;;;16.33;;
12367;SDS011;6248;49.812;6.620;2023-02-24T05:56:30;23.67;;;16.53;;
12367;SDS011;6248;49.812;6.620;2023-02-24T05:58:58;26.13;;;17.17;;
12367;SDS011;6248;49.812;6.620;2023-02-24T06:01:27;24.30;;;16.77;;
12367;SDS011;6248;49.812;6.620;2023-02-24T06:03:57;26.30;;;17.73;;
12367;SDS011;6248;49.812;6.620;2023-02-24T06:06:29;25.00;;;17.13;;
12367;SDS011;6248;49.812;6.620;2023-02-24T06:08:59;24.83;;;17.37;;
12367;SDS011;6248;49.812;6.620;2023-02-24T06:11:32;21.47;;;15.53;;
12367;SDS011;6248;49.812;6.620;2023-02-24T06:14:00;25.67;;;16.83;;
12367;SDS011;6248;49.812;6.620;2023-02-24T06:16:27;24.67;;;17.00;;
12367;SDS011;6248;49.812;6.620;2023-02-24T06:18:55;24.27;;;16.33;;
12367;SDS011;6248;49.812;6.620;2023-02-24T06:21:22;24.50;;;16.43;;
12367;SDS011;6248;49.812;6.620;2023-02-24T06:23:53;23.07;;;16.60;;
12367;SDS011;6248;49.812;6.620;2023-02-24T06:26:20;23.23;;;16.40;;
12367;SDS011;6248;49.812;6.620;2023-02-24T06:28:50;25.07;;;16.43;;
12367;SDS011;6248;49.812;6.620;2023-02-24T06:31:18;25.50;;;17.40;;
12367;SDS011;6248;49.812;6.620;2023-02-24T06:33:45;27.00;;;18.20;;
12367;SDS011;6248;49.812;6.620;2023-02-24T06:36:13;31.10;;;19.13;;
12367;SDS011;6248;49.812;6.620;2023-02-24T06:38:40;26.00;;;18.87;;
12367;SDS011;6248;49.812;6.620;2023-02-24T06:41:07;26.80;;;18.77;;
12367;SDS011;6248;49.812;6.620;2023-02-24T06:43:36;29.67;;;18.97;;
12367;SDS011;6248;49.812;6.620;2023-02-24T06:46:05;28.13;;;18.80;;
12367;SDS011;6248;49.812;6.620;2023-02-24T06:48:32;31.17;;;19.43;;
12367;SDS011;6248;49.812;6.620;2023-02-24T06:51:03;26.43;;;18.47;;
12367;SDS011;6248;49.812;6.620;2023-02-24T06:53:31;28.27;;;17.80;;
12367;SDS011;6248;49.812;6.620;2023-02-24T06:56:02;25.57;;;17.37;;
12367;SDS011;6248;49.812;6.620;2023-02-24T06:58:32;27.20;;;17.40;;
12367;SDS011;6248;49.812;6.620;2023-02-24T07:01:00;27.23;;;16.70;;
12367;SDS011;6248;49.812;6.620;2023-02-24T07:03:29;29.67;;;19.50;;
12367;SDS011;6248;49.812;6.620;2023-02-24T07:06:04;27.37;;;18.30;;
12367;SDS011;6248;49.812;6.620;2023-02-24T07:08:45;29.77;;;18.40;;
12367;SDS011;6248;49.812;6.620;2023-02-24T07:11:14;27.97;;;18.20;;
12367;SDS011;6248;49.812;6.620;2023-02-24T07:13:43;27.27;;;18.00;;
12367;SDS011;6248;49.812;6.620;2023-02-24T07:16:11;25.93;;;16.90;;
12367;SDS011;6248;49.812;6.620;2023-02-24T07:18:42;26.13;;;17.87;;
12367;SDS011;6248;49.812;6.620;2023-02-24T07:21:12;28.87;;;17.80;;
12367;SDS011;6248;49.812;6.620;2023-02-24T07:23:41;26.73;;;17.70;;
12367;SDS011;6248;49.812;6.620;2023-02-24T07:26:09;28.17;;;17.90;;
12367;SDS011;6248;49.812;6.620;2023-02-24T07:28:38;28.17;;;18.07;;
12367;SDS011;6248;49.812;6.620;2023-02-24T07:31:06;28.80;;;18.13;;
12367;SDS011;6248;49.812;6.620;2023-02-24T07:33:34;26.63;;;17.53;;
12367;SDS011;6248;49.812;6.620;2023-02-24T07:36:03;29.60;;;18.13;;
12367;SDS011;6248;49.812;6.620;2023-02-24T07:38:34;27.80;;;17.60;;
12367;SDS011;6248;49.812;6.620;2023-02-24T07:41:01;26.13;;;17.00;;
12367;SDS011;6248;49.812;6.620;2023-02-24T07:43:28;27.83;;;17.47;;
12367;SDS011;6248;49.812;6.620;2023-02-24T07:45:55;26.33;;;17.13;;
12367;SDS011;6248;49.812;6.620;2023-02-24T07:48:22;26.47;;;16.73;;
12367;SDS011;6248;49.812;6.620;2023-02-24T07:50:50;24.00;;;15.77;;
12367;SDS011;6248;49.812;6.620;2023-02-24T07:53:19;24.97;;;16.10;;
12367;SDS011;6248;49.812;6.620;2023-02-24T07:55:46;23.97;;;15.80;;
12367;SDS011;6248;49.812;6.620;2023-02-24T07:58:17;20.90;;;14.60;;
12367;SDS011;6248;49.812;6.620;2023-02-24T08:00:47;24.10;;;16.03;;
12367;SDS011;6248;49.812;6.620;2023-02-24T08:03:25;24.50;;;16.30;;
12367;SDS011;6248;49.812;6.620;2023-02-24T08:05:54;24.30;;;15.90;;
12367;SDS011;6248;49.812;6.620;2023-02-24T08:08:25;24.63;;;15.70;;
12367;SDS011;6248;49.812;6.620;2023-02-24T08:10:52;23.57;;;15.23;;
12367;SDS011;6248;49.812;6.620;2023-02-24T08:13:28;22.97;;;15.10;;
12367;SDS011;6248;49.812;6.620;2023-02-24T08:16:03;21.33;;;14.97;;
12367;SDS011;6248;49.812;6.620;2023-02-24T08:18:30;19.03;;;14.03;;
12367;SDS011;6248;49.812;6.620;2023-02-24T08:21:01;19.57;;;13.77;;
12367;SDS011;6248;49.812;6.620;2023-02-24T08:23:30;20.57;;;15.10;;
12367;SDS011;6248;49.812;6.620;2023-02-24T08:26:00;18.77;;;13.83;;
12367;SDS011;6248;49.812;6.620;2023-02-24T08:28:31;20.10;;;14.67;;
12367;SDS011;6248;49.812;6.620;2023-02-24T08:30:58;20.90;;;14.23;;
12367;SDS011;6248;49.812;6.620;2023-02-24T08:33:29;20.43;;;13.97;;
12367;SDS011;6248;49.812;6.620;2023-02-24T08:35:56;20.27;;;15.27;;
12367;SDS011;6248;49.812;6.620;2023-02-24T08:38:26;17.93;;;13.43;;
12367;SDS011;6248;49.812;6.620;2023-02-24T08:41:05;17.20;;;12.63;;
12367;SDS011;6248;49.812;6.620;2023-02-24T08:43:36;19.10;;;14.10;;
12367;SDS011;6248;49.812;6.620;2023-02-24T08:46:05;17.73;;;13.27;;
12367;SDS011;6248;49.812;6.620;2023-02-24T08:48:38;18.87;;;13.77;;
12367;SDS011;6248;49.812;6.620;2023-02-24T08:51:08;18.80;;;14.57;;
12367;SDS011;6248;49.812;6.620;2023-02-24T08:53:35;22.20;;;15.27;;
12367;SDS011;6248;49.812;6.620;2023-02-24T08:56:06;18.53;;;13.90;;
12367;SDS011;6248;49.812;6.620;2023-02-24T08:58:37;19.07;;;13.87;;
12367;SDS011;6248;49.812;6.620;2023-02-24T09:01:11;20.23;;;14.67;;
12367;SDS011;6248;49.812;6.620;2023-02-24T09:03:43;21.93;;;14.43;;
12367;SDS011;6248;49.812;6.620;2023-02-24T09:06:11;19.67;;;14.40;;
12367;SDS011;6248;49.812;6.620;2023-02-24T09:08:41;19.60;;;14.90;;
12367;SDS011;6248;49.812;6.620;2023-02-24T09:11:11;21.07;;;14.80;;
12367;SDS011;6248;49.812;6.620;2023-02-24T09:13:39;22.63;;;15.60;;
12367;SDS011;6248;49.812;6.620;2023-02-24T09:16:15;20.17;;;14.97;;
12367;SDS011;6248;49.812;6.620;2023-02-24T09:18:43;19.53;;;14.23;;
12367;SDS011;6248;49.812;6.620;2023-02-24T09:21:10;20.33;;;15.77;;
12367;SDS011;6248;49.812;6.620;2023-02-24T09:23:55;21.60;;;15.63;;
12367;SDS011;6248;49.812;6.620;2023-02-24T09:26:25;19.87;;;14.67;;
12367;SDS011;6248;49.812;6.620;2023-02-24T09:28:56;18.97;;;14.80;;
12367;SDS011;6248;49.812;6.620;2023-02-24T09:31:23;21.03;;;14.90;;
12367;SDS011;6248;49.812;6.620;2023-02-24T09:34:06;18.57;;;14.70;;
12367;SDS011;6248;49.812;6.620;2023-02-24T09:36:34;18.10;;;13.77;;
12367;SDS011;6248;49.812;6.620;2023-02-24T09:39:09;16.70;;;13.93;;
12367;SDS011;6248;49.812;6.620;2023-02-24T09:41:40;17.20;;;14.13;;
12367;SDS011;6248;49.812;6.620;2023-02-24T09:44:26;17.50;;;13.20;;
12367;SDS011;6248;49.812;6.620;2023-02-24T09:46:58;19.10;;;13.87;;
12367;SDS011;6248;49.812;6.620;2023-02-24T09:49:34;17.63;;;13.83;;
12367;SDS011;6248;49.812;6.620;2023-02-24T09:52:10;17.73;;;14.17;;
12367;SDS011;6248;49.812;6.620;2023-02-24T09:54:41;19.00;;;14.97;;
12367;SDS011;6248;49.812;6.620;2023-02-24T09:57:30;17.50;;;13.40;;
12367;SDS011;6248;49.812;6.620;2023-02-24T10:00:19;17.70;;;13.17;;
12367;SDS011;6248;49.812;6.620;2023-02-24T10:02:59;17.97;;;14.40;;
12367;SDS011;6248;49.812;6.620;2023-02-24T10:05:44;17.73;;;13.27;;
12367;SDS011;6248;49.812;6.620;2023-02-24T10:08:15;16.13;;;13.43;;
12367;SDS011;6248;49.812;6.620;2023-02-24T10:10:49;17.67;;;13.10;;
12367;SDS011;6248;49.812;6.620;2023-02-24T10:13:33;17.10;;;13.20;;
12367;SDS011;6248;49.812;6.620;2023-02-24T10:16:02;16.37;;;13.33;;
12367;SDS011;6248;49.812;6.620;2023-02-24T10:18:31;17.93;;;13.30;;
12367;SDS011;6248;49.812;6.620;2023-02-24T10:21:03;17.60;;;13.67;;
12367;SDS011;6248;49.812;6.620;2023-02-24T10:23:35;16.57;;;13.93;;
12367;SDS011;6248;49.812;6.620;2023-02-24T10:26:10;16.63;;;12.33;;
12367;SDS011;6248;49.812;6.620;2023-02-24T10:28:48;16.90;;;12.10;;
12367;SDS011;6248;49.812;6.620;2023-02-24T10:31:18;14.13;;;11.50;;
12367;SDS011;6248;49.812;6.620;2023-02-24T10:33:49;13.87;;;11.43;;
12367;SDS011;6248;49.812;6.620;2023-02-24T10:36:18;14.97;;;11.83;;
12367;SDS011;6248;49.812;6.620;2023-02-24T10:38:50;12.87;;;10.60;;
12367;SDS011;6248;49.812;6.620;2023-02-24T10:41:20;10.73;;;9.20;;
12367;SDS011;6248;49.812;6.620;2023-02-24T10:43:54;11.87;;;9.90;;
12367;SDS011;6248;49.812;6.620;2023-02-24T10:46:22;10.80;;;9.07;;
12367;SDS011;6248;49.812;6.620;2023-02-24T10:48:52;12.23;;;9.10;;
12367;SDS011;6248;49.812;6.620;2023-02-24T10:51:24;12.03;;;9.93;;
12367;SDS011;6248;49.812;6.620;2023-02-24T10:54:02;12.03;;;9.70;;
12367;SDS011;6248;49.812;6.620;2023-02-24T10:56:46;14.07;;;10.57;;
12367;SDS011;6248;49.812;6.620;2023-02-24T10:59:25;12.23;;;9.73;;
12367;SDS011;6248;49.812;6.620;2023-02-24T11:02:23;11.83;;;9.67;;
12367;SDS011;6248;49.812;6.620;2023-02-24T11:04:52;11.33;;;9.60;;
12367;SDS011;6248;49.812;6.620;2023-02-24T11:07:40;9.97;;;8.50;;
12367;SDS011;6248;49.812;6.620;2023-02-24T11:10:18;11.10;;;9.13;;
12367;SDS011;6248;49.812;6.620;2023-02-24T11:12:51;10.17;;;8.03;;
12367;SDS011;6248;49.812;6.620;2023-02-24T11:15:41;9.17;;;8.17;;
12367;SDS011;6248;49.812;6.620;2023-02-24T11:18:27;11.10;;;8.53;;
12367;SDS011;6248;49.812;6.620;2023-02-24T11:20:54;11.27;;;9.30;;
12367;SDS011;6248;49.812;6.620;2023-02-24T11:23:23;12.13;;;8.93;;
12367;SDS011;6248;49.812;6.620;2023-02-24T11:25:53;11.70;;;8.60;;
12367;SDS011;6248;49.812;6.620;2023-02-24T11:28:27;11.87;;;9.70;;
12367;SDS011;6248;49.812;6.620;2023-02-24T11:30:58;10.50;;;9.40;;
12367;SDS011;6248;49.812;6.620;2023-02-24T11:33:31;10.90;;;9.63;;
12367;SDS011;6248;49.812;6.620;2023-02-24T11:36:02;11.17;;;8.63;;
12367;SDS011;6248;49.812;6.620;2023-02-24T11:38:34;10.83;;;9.10;;
12367;SDS011;6248;49.812;6.620;2023-02-24T11:41:06;12.27;;;9.27;;
12367;SDS011;6248;49.812;6.620;2023-02-24T11:43:35;9.40;;;8.00;;
12367;SDS011;6248;49.812;6.620;2023-02-24T11:46:08;8.30;;;7.30;;
12367;SDS011;6248;49.812;6.620;2023-02-24T11:48:37;9.47;;;7.40;;
12367;SDS011;6248;49.812;6.620;2023-02-24T11:51:06;9.37;;;7.80;;
12367;SDS011;6248;49.812;6.620;2023-02-24T11:53:37;10.17;;;7.63;;
12367;SDS011;6248;49.812;6.620;2023-02-24T11:56:07;7.43;;;6.37;;
12367;SDS011;6248;49.812;6.620;2023-02-24T11:58:38;7.70;;;6.63;;
12367;SDS011;6248;49.812;6.620;2023-02-24T12:01:10;7.27;;;6.57;;
12367;SDS011;6248;49.812;6.620;2023-02-24T12:03:41;7.43;;;6.67;;
12367;SDS011;6248;49.812;6.620;2023-02-24T12:06:14;8.83;;;7.17;;
12367;SDS011;6248;49.812;6.620;2023-02-24T12:08:42;8.83;;;7.30;;
12367;SDS011;6248;49.812;6.620;2023-02-24T12:11:13;7.67;;;6.60;;
12367;SDS011;6248;49.812;6.620;2023-02-24T12:13:44;6.67;;;6.00;;
12367;SDS011;6248;49.812;6.620;2023-02-24T12:16:14;7.23;;;6.43;;
12367;SDS011;6248;49.812;6.620;2023-02-24T12:18:45;7.43;;;6.43;;
12367;SDS011;6248;49.812;6.620;2023-02-24T12:21:14;7.07;;;6.00;;
12367;SDS011;6248;49.812;6.620;2023-02-24T12:23:44;6.97;;;5.80;;
12367;SDS011;6248;49.812;6.620;2023-02-24T12:26:16;6.20;;;5.60;;
12367;SDS011;6248;49.812;6.620;2023-02-24T12:31:29;5.90;;;5.30;;
12367;SDS011;6248;49.812;6.620;2023-02-24T12:34:02;6.03;;;5.43;;
12367;SDS011;6248;49.812;6.620;2023-02-24T12:36:37;8.03;;;5.33;;
12367;SDS011;6248;49.812;6.620;2023-02-24T12:39:11;5.70;;;5.10;;
12367;SDS011;6248;49.812;6.620;2023-02-24T12:41:43;6.30;;;4.90;;
12367;SDS011;6248;49.812;6.620;2023-02-24T12:44:18;5.87;;;5.00;;
12367;SDS011;6248;49.812;6.620;2023-02-24T12:46:52;5.23;;;4.73;;
12367;SDS011;6248;49.812;6.620;2023-02-24T12:49:24;4.87;;;4.37;;
12367;SDS011;6248;49.812;6.620;2023-02-24T12:51:57;4.90;;;4.40;;
12367;SDS011;6248;49.812;6.620;2023-02-24T12:54:27;4.43;;;4.03;;
12367;SDS011;6248;49.812;6.620;2023-02-24T12:56:56;6.83;;;4.33;;
12367;SDS011;6248;49.812;6.620;2023-02-24T12:59:26;5.03;;;4.53;;
12367;SDS011;6248;49.812;6.620;2023-02-24T13:01:56;4.40;;;3.93;;
12367;SDS011;6248;49.812;6.620;2023-02-24T13:04:28;5.07;;;4.40;;
12367;SDS011;6248;49.812;6.620;2023-02-24T13:07:03;5.20;;;4.70;;
12367;SDS011;6248;49.812;6.620;2023-02-24T13:09:34;4.87;;;4.37;;
12367;SDS011;6248;49.812;6.620;2023-02-24T13:12:05;5.37;;;4.77;;
12367;SDS011;6248;49.812;6.620;2023-02-24T13:14:37;5.10;;;4.60;;
12367;SDS011;6248;49.812;6.620;2023-02-24T13:17:16;5.53;;;4.97;;
12367;SDS011;6248;49.812;6.620;2023-02-24T13:19:44;6.00;;;4.47;;
12367;SDS011;6248;49.812;6.620;2023-02-24T13:22:25;5.70;;;5.00;;
12367;SDS011;6248;49.812;6.620;2023-02-24T13:27:39;6.83;;;5.00;;
12367;SDS011;6248;49.812;6.620;2023-02-24T13:30:22;5.43;;;4.77;;
12367;SDS011;6248;49.812;6.620;2023-02-24T13:32:59;6.20;;;5.53;;
12367;SDS011;6248;49.812;6.620;2023-02-24T13:35:31;6.10;;;5.10;;
12367;SDS011;6248;49.812;6.620;2023-02-24T13:38:09;5.30;;;4.73;;
12367;SDS011;6248;49.812;6.620;2023-02-24T13:40:47;5.20;;;4.57;;
12367;SDS011;6248;49.812;6.620;2023-02-24T13:43:28;5.60;;;5.00;;
12367;SDS011;6248;49.812;6.620;2023-02-24T13:45:57;5.67;;;4.90;;
12367;SDS011;6248;49.812;6.620;2023-02-24T13:48:30;6.17;;;4.67;;
12367;SDS011;6248;49.812;6.620;2023-02-24T13:51:07;5.67;;;4.50;;
12367;SDS011;6248;49.812;6.620;2023-02-24T13:53:39;5.07;;;4.57;;
12367;SDS011;6248;49.812;6.620;2023-02-24T13:56:16;4.90;;;4.40;;
12367;SDS011;6248;49.812;6.620;2023-02-24T13:58:55;4.97;;;4.47;;
12367;SDS011;6248;49.812;6.620;2023-02-24T14:01:27;4.70;;;4.20;;
12367;SDS011;6248;49.812;6.620;2023-02-24T14:04:10;5.30;;;4.80;;
12367;SDS011;6248;49.812;6.620;2023-02-24T14:06:39;4.60;;;4.10;;
12367;SDS011;6248;49.812;6.620;2023-02-24T14:09:11;4.97;;;4.47;;
12367;SDS011;6248;49.812;6.620;2023-02-24T14:11:40;6.23;;;5.43;;
12367;SDS011;6248;49.812;6.620;2023-02-24T14:14:10;5.43;;;4.23;;
12367;SDS011;6248;49.812;6.620;2023-02-24T14:16:39;4.70;;;4.20;;
12367;SDS011;6248;49.812;6.620;2023-02-24T14:19:11;10.67;;;4.77;;
12367;SDS011;6248;49.812;6.620;2023-02-24T14:21:45;5.93;;;4.50;;
12367;SDS011;6248;49.812;6.620;2023-02-24T14:24:13;5.37;;;4.33;;
12367;SDS011;6248;49.812;6.620;2023-02-24T14:26:41;5.13;;;4.57;;
12367;SDS011;6248;49.812;6.620;2023-02-24T14:29:08;4.97;;;4.17;;
12367;SDS011;6248;49.812;6.620;2023-02-24T14:31:35;4.37;;;3.80;;
12367;SDS011;6248;49.812;6.620;2023-02-24T14:34:03;4.90;;;4.40;;
12367;SDS011;6248;49.812;6.620;2023-02-24T14:36:35;5.27;;;4.13;;
12367;SDS011;6248;49.812;6.620;2023-02-24T14:39:06;4.93;;;3.93;;
12367;SDS011;6248;49.812;6.620;2023-02-24T14:41:34;5.27;;;4.33;;
12367;SDS011;6248;49.812;6.620;2023-02-24T14:44:10;4.70;;;3.90;;
12367;SDS011;6248;49.812;6.620;2023-02-24T14:51:36;3.97;;;3.40;;
12367;SDS011;6248;49.812;6.620;2023-02-24T14:54:05;5.47;;;3.87;;
12367;SDS011;6248;49.812;6.620;2023-02-24T14:56:33;5.07;;;3.37;;
12367;SDS011;6248;49.812;6.620;2023-02-24T14:59:01;8.23;;;3.57;;
12367;SDS011;6248;49.812;6.620;2023-02-24T15:01:31;3.80;;;3.30;;
12367;SDS011;6248;49.812;6.620;2023-02-24T15:04:00;4.00;;;3.60;;
12367;SDS011;6248;49.812;6.620;2023-02-24T15:06:39;3.57;;;3.10;;
12367;SDS011;6248;49.812;6.620;2023-02-24T15:09:10;3.63;;;3.03;;
12367;SDS011;6248;49.812;6.620;2023-02-24T15:11:38;4.00;;;3.07;;
12367;SDS011;6248;49.812;6.620;2023-02-24T15:14:06;3.40;;;3.10;;
12367;SDS011;6248;49.812;6.620;2023-02-24T15:16:35;3.80;;;2.90;;
12367;SDS011;6248;49.812;6.620;2023-02-24T15:19:03;3.70;;;2.57;;